Haslet, Texas
Current Conditions -  °F | °C
As of 4:53 PM on Monday 20 Oct 2014 (Local Time) from KAFW Reporting Station
Scattered Clouds Scattered Clouds  
Wind Chill: 80°   Ceiling: Unl
Heat Index: 81°   Visibility: 10mi
Dew Point: 58°   Wind: 6mph
Humidity: 47%   Direction: 100°E
Pressure: 30"   Gusts: NA
Location:  32.97°N, 97.35°W
Report Text: KAFW 202153Z 10005KT 10SM SCT050 SCT300 27/14 A3000 RMK AO2 SLP151 T02670144
Loading
Personal Weather Stations






























Interactive Weather Map
Tropical Storm Tracking
New forecast layout! Learn more

10-Day Weather Forecast

Advertisements
Track Severe Weather on mobile